Aransas — WDC2630 — position and weather

sailwx.info

Track history (hours):
 
Tides and Currents Weather Stations Pressure Air Temp Water Temp Dewpoint Dewpoint Depression Visibility Wind Speed Wind Dir Waves Ship Positions

Aransas

Owner: Kirby Inland Marine LP, Houston, TX. More information available from US FCC via Universal Licensing System and Coast Guard Vessel Documentation Center.

Last reported at 2017-Oct-18 18:47 UTC. Time now 2017-Oct-18 20:32 UTC.
Position N 29°44' W 095°14'.

Length 100 m; draft 2.6 m.

Type: . MMSI: 366995780.

Date/timePositionNaut miles runAvg speedWind from/ knotsBaromVisibWave heightAir tempDewpointWater temp
2017-Oct-18 18:47N 29°44' W 095°14'8 1.0
2017-Oct-18 11:22N 29°46' W 095°05'1 3.3
2017-Oct-18 11:00N 29°45' W 095°06'0 0.0
2017-Oct-18 10:30N 29°45' W 095°06'3 2.1
2017-Oct-18 08:52N 29°48' W 095°04'2 4.3
2017-Oct-18 08:26N 29°46' W 095°05'3 0.9
2017-Oct-18 04:44N 29°44' W 095°08'0 0.1
2017-Oct-18 02:55N 29°44' W 095°08'0 0.0
2017-Oct-17 12:47N 29°44' W 095°08'0 0.0
2017-Oct-17 12:27N 29°44' W 095°08'3 1.1
2017-Oct-17 09:29N 29°46' W 095°05'11 0.3
2017-Oct-15 23:55N 29°37' W 094°58'3 6.7
2017-Oct-15 23:30N 29°37' W 095°01'0 0.6
2017-Oct-15 22:51N 29°37' W 095°01'0 0.2
2017-Oct-15 22:30N 29°37' W 095°01'0 0.0
2017-Oct-15 22:00N 29°37' W 095°01'0 0.0
2017-Oct-15 21:30N 29°37' W 095°01'0 0.0
2017-Oct-15 21:00N 29°37' W 095°01'0 0.0
2017-Oct-15 20:30N 29°37' W 095°01'0 0.0
2017-Oct-15 20:00N 29°37' W 095°01'0 0.0
2017-Oct-15 19:30N 29°37' W 095°01'0 0.0
2017-Oct-15 19:00N 29°37' W 095°01'0 0.0
2017-Oct-15 18:30N 29°37' W 095°01'0 0.0
2017-Oct-15 18:00N 29°37' W 095°01'0 0.4
2017-Oct-15 17:30N 29°37' W 095°02'0 0.0
2017-Oct-15 17:00N 29°37' W 095°02'0 0.0
2017-Oct-15 16:28N 29°37' W 095°02'0 0.0
2017-Oct-15 15:55N 29°37' W 095°02'0 0.0
2017-Oct-15 15:29N 29°37' W 095°02'0 0.0
2017-Oct-15 15:00N 29°37' W 095°02'0 0.0
2017-Oct-15 13:39N 29°37' W 095°02'0 0.0
2017-Oct-15 13:28N 29°37' W 095°02'0 0.0
2017-Oct-15 13:00N 29°37' W 095°02'0 0.0
2017-Oct-15 12:28N 29°37' W 095°02'0 0.0
2017-Oct-15 11:51N 29°37' W 095°02'0 0.0
2017-Oct-15 11:28N 29°37' W 095°02'0 0.0
2017-Oct-15 10:59N 29°37' W 095°02'0 0.0
2017-Oct-15 10:30N 29°37' W 095°02'0 0.0
2017-Oct-15 10:00N 29°37' W 095°02'0 0.0
2017-Oct-15 09:30N 29°37' W 095°02'0 0.0
2017-Oct-15 08:59N 29°37' W 095°02'0 0.0
2017-Oct-15 08:30N 29°37' W 095°02'0 0.0
2017-Oct-15 08:00N 29°37' W 095°02'0 0.0
2017-Oct-15 07:30N 29°37' W 095°02'0 0.2
2017-Oct-15 07:00N 29°37' W 095°01'0 0.2
2017-Oct-15 06:30N 29°37' W 095°01'3 5.8
2017-Oct-15 05:55N 29°37' W 094°58'3 8.1
2017-Oct-15 05:30N 29°40' W 094°59'4 0.7
2017-Oct-15 00:31N 29°37' W 094°58'0 2.4
2017-Oct-15 00:30N 29°37' W 094°58'3 6.4
2017-Oct-15 00:00N 29°37' W 095°01'0 0.0
2017-Oct-14 23:30N 29°37' W 095°01'4 4.3
2017-Oct-14 22:35N 29°39' W 094°58'1 7.0
2017-Oct-14 22:28N 29°40' W 094°59'8 4.2
2017-Oct-14 20:29N 29°47' W 095°04'0 0.0
2017-Oct-13 15:38N 29°47' W 095°05'1 0.2
2017-Oct-13 08:21N 29°46' W 095°05'0 0.2
2017-Oct-13 06:55N 29°46' W 095°05'3 4.0
2017-Oct-13 06:13N 29°44' W 095°08'5 1.3
2017-Oct-13 01:50N 29°43' W 095°14'5 2.8
2017-Oct-13 00:08N 29°44' W 095°09'1 0.2
2017-Oct-12 19:44N 29°45' W 095°10'1 0.1
2017-Oct-12 02:55N 29°44' W 095°08'3 7.4
2017-Oct-12 02:29N 29°45' W 095°12'2 1.7
2017-Oct-12 01:18N 29°44' W 095°14'2 5.5
2017-Oct-12 00:55N 29°45' W 095°12'2 5.5
2017-Oct-12 00:28N 29°44' W 095°09'12 3.4
2017-Oct-11 20:57N 29°37' W 094°58'3 6.6
2017-Oct-11 20:30N 29°37' W 095°01'0 0.1
2017-Oct-11 19:58N 29°37' W 095°01'0 0.0
2017-Oct-11 19:30N 29°37' W 095°01'0 0.0
2017-Oct-11 19:00N 29°37' W 095°01'0 0.0
2017-Oct-11 18:07N 29°37' W 095°01'0 0.0
2017-Oct-11 17:56N 29°37' W 095°01'0 0.0
2017-Oct-10 23:58N 29°37' W 095°01'0 0.0
2017-Oct-10 23:29N 29°37' W 095°01'0 0.0
2017-Oct-10 23:00N 29°37' W 095°01'1 1.3
2017-Oct-10 22:30N 29°37' W 095°01'3 4.7
2017-Oct-10 21:56N 29°37' W 094°58'3 5.3
2017-Oct-10 21:26N 29°40' W 094°58'2 4.4
2017-Oct-10 21:00N 29°41' W 094°59'5 0.9
2017-Oct-10 15:43N 29°37' W 094°58'2 8.0
2017-Oct-10 15:30N 29°37' W 095°00'1 2.3
2017-Oct-10 14:58N 29°37' W 095°01'0 0.0
2017-Oct-10 13:24N 29°37' W 095°02'0 0.0
2017-Oct-10 12:57N 29°37' W 095°02'0 0.0
2017-Oct-10 12:30N 29°37' W 095°02'0 0.0
2017-Oct-10 12:00N 29°37' W 095°02'0 0.0
2017-Oct-10 11:22N 29°37' W 095°02'0 0.0
2017-Oct-10 10:59N 29°37' W 095°02'0 0.0
2017-Oct-10 10:30N 29°37' W 095°02'0 0.0
2017-Oct-10 10:00N 29°37' W 095°02'0 0.0
2017-Oct-10 09:28N 29°37' W 095°02'0 0.0
2017-Oct-10 08:09N 29°37' W 095°02'0 0.0
2017-Oct-10 08:00N 29°37' W 095°02'0 0.0
2017-Oct-10 07:29N 29°37' W 095°02'0 0.0
2017-Oct-10 06:58N 29°37' W 095°02'0 0.0
2017-Oct-10 06:07N 29°37' W 095°01'0 0.0
2017-Oct-10 05:57N 29°37' W 095°01'1 3.1
2017-Oct-10 05:29N 29°37' W 094°60'3 5.0
2017-Oct-10 04:48N 29°40' W 094°59'3 6.9
2017-Oct-10 04:23N 29°42' W 095°01'  
Track history (hours):
 
Tides and Currents Weather Stations Pressure Air Temp Water Temp Dewpoint Dewpoint Depression Visibility Wind Speed Wind Dir Waves Ship Positions

Aransas

Owner: Kirby Inland Marine LP, Houston, TX. More information available from US FCC via Universal Licensing System and Coast Guard Vessel Documentation Center.

Last reported at 2017-Oct-18 18:47 UTC. Time now 2017-Oct-18 20:32 UTC.
Position N 29°44' W 095°14'.

Length 100 m; draft 2.6 m.

Type: . MMSI: 366995780.

Date/timePositionNaut miles runAvg speedWind from/ knotsBaromVisibWave heightAir tempDewpointWater temp
2017-Oct-18 18:47N 29°44' W 095°14'8 1.0
2017-Oct-18 11:22N 29°46' W 095°05'1 3.3
2017-Oct-18 11:00N 29°45' W 095°06'0 0.0
2017-Oct-18 10:30N 29°45' W 095°06'3 2.1
2017-Oct-18 08:52N 29°48' W 095°04'2 4.3
2017-Oct-18 08:26N 29°46' W 095°05'3 0.9
2017-Oct-18 04:44N 29°44' W 095°08'0 0.1
2017-Oct-18 02:55N 29°44' W 095°08'0 0.0
2017-Oct-17 12:47N 29°44' W 095°08'0 0.0
2017-Oct-17 12:27N 29°44' W 095°08'3 1.1
2017-Oct-17 09:29N 29°46' W 095°05'11 0.3
2017-Oct-15 23:55N 29°37' W 094°58'3 6.7
2017-Oct-15 23:30N 29°37' W 095°01'0 0.6
2017-Oct-15 22:51N 29°37' W 095°01'0 0.2
2017-Oct-15 22:30N 29°37' W 095°01'0 0.0
2017-Oct-15 22:00N 29°37' W 095°01'0 0.0
2017-Oct-15 21:30N 29°37' W 095°01'0 0.0
2017-Oct-15 21:00N 29°37' W 095°01'0 0.0
2017-Oct-15 20:30N 29°37' W 095°01'0 0.0
2017-Oct-15 20:00N 29°37' W 095°01'0 0.0
2017-Oct-15 19:30N 29°37' W 095°01'0 0.0
2017-Oct-15 19:00N 29°37' W 095°01'0 0.0
2017-Oct-15 18:30N 29°37' W 095°01'0 0.0
2017-Oct-15 18:00N 29°37' W 095°01'0 0.4
2017-Oct-15 17:30N 29°37' W 095°02'0 0.0
2017-Oct-15 17:00N 29°37' W 095°02'0 0.0
2017-Oct-15 16:28N 29°37' W 095°02'0 0.0
2017-Oct-15 15:55N 29°37' W 095°02'0 0.0
2017-Oct-15 15:29N 29°37' W 095°02'0 0.0
2017-Oct-15 15:00N 29°37' W 095°02'0 0.0
2017-Oct-15 13:39N 29°37' W 095°02'0 0.0
2017-Oct-15 13:28N 29°37' W 095°02'0 0.0
2017-Oct-15 13:00N 29°37' W 095°02'0 0.0
2017-Oct-15 12:28N 29°37' W 095°02'0 0.0
2017-Oct-15 11:51N 29°37' W 095°02'0 0.0
2017-Oct-15 11:28N 29°37' W 095°02'0 0.0
2017-Oct-15 10:59N 29°37' W 095°02'0 0.0
2017-Oct-15 10:30N 29°37' W 095°02'0 0.0
2017-Oct-15 10:00N 29°37' W 095°02'0 0.0
2017-Oct-15 09:30N 29°37' W 095°02'0 0.0
2017-Oct-15 08:59N 29°37' W 095°02'0 0.0
2017-Oct-15 08:30N 29°37' W 095°02'0 0.0
2017-Oct-15 08:00N 29°37' W 095°02'0 0.0
2017-Oct-15 07:30N 29°37' W 095°02'0 0.2
2017-Oct-15 07:00N 29°37' W 095°01'0 0.2
2017-Oct-15 06:30N 29°37' W 095°01'3 5.8
2017-Oct-15 05:55N 29°37' W 094°58'3 8.1
2017-Oct-15 05:30N 29°40' W 094°59'4 0.7
2017-Oct-15 00:31N 29°37' W 094°58'0 2.4
2017-Oct-15 00:30N 29°37' W 094°58'3 6.4
2017-Oct-15 00:00N 29°37' W 095°01'0 0.0
2017-Oct-14 23:30N 29°37' W 095°01'4 4.3
2017-Oct-14 22:35N 29°39' W 094°58'1 7.0
2017-Oct-14 22:28N 29°40' W 094°59'8 4.2
2017-Oct-14 20:29N 29°47' W 095°04'0 0.0
2017-Oct-13 15:38N 29°47' W 095°05'1 0.2
2017-Oct-13 08:21N 29°46' W 095°05'0 0.2
2017-Oct-13 06:55N 29°46' W 095°05'3 4.0
2017-Oct-13 06:13N 29°44' W 095°08'5 1.3
2017-Oct-13 01:50N 29°43' W 095°14'5 2.8
2017-Oct-13 00:08N 29°44' W 095°09'1 0.2
2017-Oct-12 19:44N 29°45' W 095°10'1 0.1
2017-Oct-12 02:55N 29°44' W 095°08'3 7.4
2017-Oct-12 02:29N 29°45' W 095°12'2 1.7
2017-Oct-12 01:18N 29°44' W 095°14'2 5.5
2017-Oct-12 00:55N 29°45' W 095°12'2 5.5
2017-Oct-12 00:28N 29°44' W 095°09'12 3.4
2017-Oct-11 20:57N 29°37' W 094°58'3 6.6
2017-Oct-11 20:30N 29°37' W 095°01'0 0.1
2017-Oct-11 19:58N 29°37' W 095°01'0 0.0
2017-Oct-11 19:30N 29°37' W 095°01'0 0.0
2017-Oct-11 19:00N 29°37' W 095°01'0 0.0
2017-Oct-11 18:07N 29°37' W 095°01'0 0.0
2017-Oct-11 17:56N 29°37' W 095°01'0 0.0
2017-Oct-10 23:58N 29°37' W 095°01'0 0.0
2017-Oct-10 23:29N 29°37' W 095°01'0 0.0
2017-Oct-10 23:00N 29°37' W 095°01'1 1.3
2017-Oct-10 22:30N 29°37' W 095°01'3 4.7
2017-Oct-10 21:56N 29°37' W 094°58'3 5.3
2017-Oct-10 21:26N 29°40' W 094°58'2 4.4
2017-Oct-10 21:00N 29°41' W 094°59'5 0.9
2017-Oct-10 15:43N 29°37' W 094°58'2 8.0
2017-Oct-10 15:30N 29°37' W 095°00'1 2.3
2017-Oct-10 14:58N 29°37' W 095°01'0 0.0
2017-Oct-10 13:24N 29°37' W 095°02'0 0.0
2017-Oct-10 12:57N 29°37' W 095°02'0 0.0
2017-Oct-10 12:30N 29°37' W 095°02'0 0.0
2017-Oct-10 12:00N 29°37' W 095°02'0 0.0
2017-Oct-10 11:22N 29°37' W 095°02'0 0.0
2017-Oct-10 10:59N 29°37' W 095°02'0 0.0
2017-Oct-10 10:30N 29°37' W 095°02'0 0.0
2017-Oct-10 10:00N 29°37' W 095°02'0 0.0
2017-Oct-10 09:28N 29°37' W 095°02'0 0.0
2017-Oct-10 08:09N 29°37' W 095°02'0 0.0
2017-Oct-10 08:00N 29°37' W 095°02'0 0.0
2017-Oct-10 07:29N 29°37' W 095°02'0 0.0
2017-Oct-10 06:58N 29°37' W 095°02'0 0.0
2017-Oct-10 06:07N 29°37' W 095°01'0 0.0
2017-Oct-10 05:57N 29°37' W 095°01'1 3.1
2017-Oct-10 05:29N 29°37' W 094°60'3 5.0
2017-Oct-10 04:48N 29°40' W 094°59'3 6.9
2017-Oct-10 04:23N 29°42' W 095°01'  

Dump ship's entire track history